Chickering American River Reserve, California Weather observations

Data are for 10 minute period ending at time listed.
 Day   Time   Solar   Ave.   Ave.  Ave.  Vector  Max.   Baro.   Total    
  of    of     Rad.   Air    Rel.  Wind   Wind   Wind  Press.  Precip.   
Year   Day            Temp.  Hum.  Speed  Dir.   Gust                    
2014   (PST)  Kw/m2    F      %     mph   deg.    mph    mb.     in.     
-------------------------------------------------------------------------
 353    0:00   0.00   30.6    99    1.6   241     4.4   819.7    0.00 
 353    0:10   0.00   31.2    99    0.9   253     3.3   819.7    0.00 
 353    0:20   0.00   31.6    99    0.8    20     3.3   819.7    0.00 
 353    0:30   0.00   31.4    98    0.7   131     2.0   819.6    0.00 
 353    0:40   0.00   31.2    98    0.8   264     3.9   819.3    0.00 
 353    0:50   0.00   31.4    98    0.6   245     2.0   819.4    0.00 
 353    1:00   0.00   31.5    98    1.0   149     6.6   819.3    0.00 
 353    1:10   0.00   31.5    98    1.1   119     4.4   819.4    0.00 
 353    1:20   0.00   31.7    98    0.8   331     5.1   819.5    0.00 
 353    1:30   0.00   32.1    97    1.1    75     3.8   819.5    0.00 
 353    1:40   0.00   31.9    97    0.3   352     2.3   819.6    0.00 
 353    1:50   0.00   31.6    98    1.0   251     3.1   819.7    0.00 
 353    2:00   0.00   31.5    98    1.9   356     7.5   819.6    0.00 
 353    2:10   0.00   31.8    96    1.5   169     8.5   819.6    0.00 
 353    2:20   0.00   31.6    96    1.3   167     5.4   819.7    0.00 
 353    2:30   0.00   31.5    96    1.4   163     3.9   819.7    0.00 
 353    2:40   0.00   31.4    97    1.4   165     6.4   819.6    0.00 
 353    2:50   0.00   31.4    96    1.5   204     7.1   819.5    0.00 
 353    3:00   0.00   31.4    96    1.4   173     3.9   819.3    0.00 
 353    3:10   0.00   31.4    96    1.5   171     6.9   819.1    0.00 
 353    3:20   0.00   31.9    94    2.5   193     9.4   818.9    0.00 
 353    3:30   0.00   32.2    91    2.6   189    10.7   818.7    0.00 
 353    3:40   0.00   32.6    89    1.5   237     5.0   818.7    0.00 
 353    3:50   0.00   32.3    91    1.9   304     9.3   818.7    0.00 
 353    4:00   0.00   31.9    93    1.4   316     3.8   818.8    0.00 
 353    4:10   0.00   31.9    92    0.8    97     2.5   818.8    0.00 
 353    4:20   0.00   31.8    92    0.9   260     2.6   818.7    0.00 
 353    4:30   0.00   31.8    93    0.7   260     2.2   818.7    0.00 
 353    4:40   0.00   31.9    89    1.8   228     6.8   818.8    0.00 
 353    4:50   0.00   32.0    88    1.0    11     4.6   818.7    0.00 
 353    5:00   0.00   31.5    90    1.0   314     4.9   818.5    0.00 
 353    5:10   0.00   31.5    89    1.0   222     5.9   818.5    0.00 
 353    5:20   0.00   31.5    87    1.1    14     5.8   818.8    0.00 
 353    5:30   0.00   31.8    84    1.1   191     3.2   818.8    0.00 
 353    5:40   0.00   31.7    88    2.0    67     6.6   818.8    0.00 
 353    5:50   0.00   31.6    86    2.0   188     6.8   818.7    0.00 
 353    6:00   0.00   31.9    86    1.2   210     4.7   818.6    0.00 
 353    6:10   0.00   31.6    84    2.9   185     9.8   818.5    0.00 
 353    6:20   0.00   32.0    84    3.6   188    10.6   818.4    0.00 
 353    6:30   0.00   32.0    84    1.6   183     6.2   818.5    0.00 
 353    6:40   0.00   31.9    84    1.7   201     9.1   818.4    0.00 
 353    6:50   0.00   31.6    85    1.8   226     8.3   818.3    0.00 
 353    7:00   0.00   32.0    83    1.6   173     5.3   818.3    0.00 
 353    7:10   0.00   31.8    85    1.7   280     8.8   818.2    0.00 
 353    7:20   0.00   31.3    87    1.1   261     8.6   818.1    0.00 
 353    7:30   0.00   31.4    87    1.7   172    11.3   818.1    0.00 
 353    7:40   0.01   32.2    82    1.9   233     7.7   818.1    0.00 
 353    7:50   0.02   32.6    77    2.8   184    14.6   818.1    0.00 
 353    8:00   0.04   33.7    75    3.6   216    12.9   818.2    0.00 
 353    8:10   0.04   33.8    78    2.9   195    12.5   818.3    0.00 
 353    8:20   0.06   33.7    85    2.0   242    14.5   818.3    0.00 
 353    8:30   0.07   34.1    80    2.3   161    10.3   818.3    0.00 
 353    8:40   0.06   34.6    78    2.4   170     9.4   818.4    0.00 
 353    8:50   0.07   34.6    81    2.1   184     8.6   818.5    0.00 
 353    9:00   0.06   34.5    82    2.1   253    10.6   818.6    0.00 
 353    9:10   0.03   34.6    81    1.4   300     5.0   819.1    0.00 
 353    9:20   0.01   33.8    86    2.0   226     7.8   819.4    0.00 
 353    9:30   0.01   32.9    93    1.5   124     6.2   819.6    0.00 
 353    9:40   0.00   32.4    96    2.1   196     8.8   819.5    0.00 
 353    9:50   0.01   32.4    97    1.2   171     4.9   819.5    0.00 
 353   10:00   0.00   32.7    97    1.3   134     5.6   819.5    0.00 
 353   10:10   0.00   32.7    97    1.4   167     4.5   819.6    0.00 
 353   10:20   0.00   32.7    98    0.9    55     4.2   819.7    0.00 
 353   10:30   0.00   32.6    98    1.7   208    10.0   819.8    0.00 
 353   10:40   0.00   32.6    98    0.7   164     3.4   819.8    0.00 
 353   10:50   0.00   32.7    98    0.0     0     0.0   820.0    0.00 
 353   11:00   0.00   32.6    98    0.0     0     0.0   820.1    0.00 
 353   11:10   0.00   32.6    98    0.0     0     0.0   820.0    0.00 
 353   11:20   0.00   32.8    98    0.0     0     0.0   819.9    0.00 
 353   11:30   0.00   32.8    98    0.0     0     0.0   819.9    0.00 
 353   11:40   0.00   32.7    96    0.0     0     0.0   819.8    0.00 
 353   11:50   0.00   32.7    96    0.0     0     0.0   819.7    0.00 
 353   12:00   0.00   33.0    96    0.0     0     0.0   820.0    0.00 

Return to Chickering American River Reserve graphs page.


Western Regional Climate Center,wrcc@dri.edu